Time;durP1;ratioP1;P1;durP2;ratioP2;P2;SDS_P1;SDS_P2;PMS_P1;PMS_P2;Temp;Humidity;BMP_temperature;BMP_pressure;BME280_temperature;BME280_humidity;BME280_pressure;Samples;Min_cycle;Max_cycle;Signal;HPM_P1;HPM_P2
2021/11/11 00:00:56;;;;;;;;;;;14.50;67.90;;;;;;4229081;28;20415;-70
2021/11/11 00:02:59;;;;;;;;;;;14.60;68.00;;;;;;4224220;28;19919;-73
2021/11/11 00:05:03;;;;;;;;;;;14.50;67.90;;;;;;4233214;28;19934;-71
2021/11/11 00:07:07;;;;;;;;;;;14.50;67.80;;;;;;4220484;28;20397;-71
2021/11/11 00:09:10;;;;;;;;;;;14.50;67.90;;;;;;4232067;28;19927;-71
2021/11/11 00:11:13;;;;;;;;;;;14.60;67.90;;;;;;4221849;28;19920;-71
2021/11/11 00:13:19;;;;;;;;;;;14.50;67.80;;;;;;4226535;28;19930;-71
2021/11/11 00:15:22;;;;;;;;;;;14.50;67.90;;;;;;4218745;28;19988;-73
2021/11/11 00:17:25;;;;;;;;;;;14.50;67.90;;;;;;4226202;28;19919;-72
2021/11/11 00:19:28;;;;;;;;;;;14.50;67.90;;;;;;4214449;28;19958;-71
2021/11/11 00:21:31;;;;;;;;;;;14.50;67.90;;;;;;4216675;28;19927;-71
2021/11/11 00:23:35;;;;;;;;;;;14.40;67.80;;;;;;4226889;28;19920;-72
2021/11/11 00:25:38;;;;;;;;;;;14.50;67.90;;;;;;4215773;28;20066;-71
2021/11/11 00:27:41;;;;;;;;;;;14.50;67.90;;;;;;4221884;28;20014;-71
2021/11/11 00:29:44;;;;;;;;;;;14.50;67.90;;;;;;4230300;28;19964;-68
2021/11/11 00:31:47;;;;;;;;;;;14.40;67.90;;;;;;4230088;28;19924;-72
2021/11/11 00:33:50;;;;;;;;;;;14.40;67.80;;;;;;4220510;28;19924;-71
2021/11/11 00:35:52;;;;;;;;;;;14.40;67.90;;;;;;4243877;27;19927;-72
2021/11/11 00:37:57;;;;;;;;;;;14.40;68.40;;;;;;4236065;27;19919;-71
2021/11/11 00:40:02;;;;;;;;;;;14.40;67.90;;;;;;4229428;28;19920;-72
2021/11/11 00:42:05;;;;;;;;;;;14.40;67.80;;;;;;4233333;27;19927;-71
2021/11/11 00:44:07;;;;;;;;;;;14.40;67.80;;;;;;4237898;27;19930;-71
2021/11/11 00:46:10;;;;;;;;;;;14.40;67.70;;;;;;4250452;27;19919;-71
2021/11/11 00:48:13;;;;;;;;;;;14.40;67.70;;;;;;4244643;27;20426;-71
2021/11/11 00:50:17;;;;;;;;;;;14.40;67.80;;;;;;4235717;27;19920;-73
2021/11/11 00:52:20;;;;;;;;;;;14.40;67.70;;;;;;4237904;27;19923;-73
2021/11/11 00:54:23;;;;;;;;;;;14.40;67.70;;;;;;4244194;27;19919;-71
2021/11/11 00:56:27;;;;;;;;;;;14.40;67.70;;;;;;4234085;28;19920;-72
2021/11/11 00:58:30;;;;;;;;;;;14.40;67.70;;;;;;4243709;27;19926;-71
2021/11/11 01:00:36;;;;;;;;;;;14.30;67.60;;;;;;4233234;27;19981;-71
2021/11/11 01:02:39;;;;;;;;;;;14.30;67.60;;;;;;4230955;27;20337;-71
2021/11/11 01:04:42;;;;;;;;;;;14.40;67.70;;;;;;4242932;27;19932;-71
2021/11/11 01:06:44;;;;;;;;;;;14.40;67.70;;;;;;4232028;28;19931;-74
2021/11/11 01:08:47;;;;;;;;;;;14.40;68.20;;;;;;4236579;27;19969;-72
2021/11/11 01:10:50;;;;;;;;;;;14.40;67.60;;;;;;4237479;27;19934;-74
2021/11/11 01:12:56;;;;;;;;;;;14.30;67.60;;;;;;4235261;28;20319;-71
2021/11/11 01:14:59;;;;;;;;;;;14.30;67.60;;;;;;4243862;27;19920;-74
2021/11/11 01:17:02;;;;;;;;;;;14.30;67.60;;;;;;4232377;28;19919;-71
2021/11/11 01:19:05;;;;;;;;;;;14.30;67.60;;;;;;4238876;27;19919;-73
2021/11/11 01:21:08;;;;;;;;;;;14.30;67.60;;;;;;4235172;27;19923;-71
2021/11/11 01:23:10;;;;;;;;;;;14.30;67.60;;;;;;4231491;27;19927;-73
2021/11/11 01:25:15;;;;;;;;;;;14.30;67.60;;;;;;4244382;27;19920;-71
2021/11/11 01:27:17;;;;;;;;;;;14.30;67.60;;;;;;4231319;28;19923;-71
2021/11/11 01:29:22;;;;;;;;;;;14.30;67.60;;;;;;4236768;27;19923;-70
2021/11/11 01:31:24;;;;;;;;;;;14.20;67.50;;;;;;4235051;27;19919;-72
2021/11/11 01:33:27;;;;;;;;;;;14.30;67.60;;;;;;4232208;27;19923;-72
2021/11/11 01:35:30;;;;;;;;;;;14.20;67.50;;;;;;4256481;27;19919;-71
2021/11/11 01:37:33;;;;;;;;;;;14.30;67.50;;;;;;4250794;27;19925;-72
2021/11/11 01:39:35;;;;;;;;;;;14.20;67.40;;;;;;4253707;27;19919;-72
2021/11/11 01:41:42;;;;;;;;;;;14.20;67.50;;;;;;4258370;27;20486;-71
2021/11/11 01:43:45;;;;;;;;;;;14.20;67.50;;;;;;4262787;27;19915;-71
2021/11/11 01:45:49;;;;;;;;;;;14.20;67.40;;;;;;4261445;27;19953;-73
2021/11/11 01:47:52;;;;;;;;;;;14.20;67.40;;;;;;4230565;28;19920;-72
2021/11/11 01:49:55;;;;;;;;;;;14.20;67.40;;;;;;4255000;27;20353;-71
2021/11/11 01:51:57;;;;;;;;;;;14.20;67.40;;;;;;4236318;27;19920;-72
2021/11/11 01:54:00;;;;;;;;;;;14.20;67.50;;;;;;4247523;27;19919;-71
2021/11/11 01:56:03;;;;;;;;;;;14.20;67.40;;;;;;4258041;27;19918;-71
2021/11/11 01:58:06;;;;;;;;;;;14.20;67.40;;;;;;4246466;27;19923;-71
2021/11/11 02:00:10;;;;;;;;;;;14.20;67.40;;;;;;4234048;27;19920;-71
2021/11/11 02:02:22;;;;;;;;;;;14.20;67.40;;;;;;4267334;27;19919;-71
2021/11/11 02:04:26;;;;;;;;;;;14.20;67.40;;;;;;4264062;27;19963;-72
2021/11/11 02:06:28;;;;;;;;;;;14.20;67.40;;;;;;4252969;27;19923;-72
2021/11/11 02:08:31;;;;;;;;;;;14.20;67.40;;;;;;4245415;27;19939;-71
2021/11/11 02:10:34;;;;;;;;;;;14.10;67.30;;;;;;4259778;27;19919;-71
2021/11/11 02:12:37;;;;;;;;;;;14.10;67.30;;;;;;4252844;27;19927;-71
2021/11/11 02:14:40;;;;;;;;;;;14.10;67.30;;;;;;4250060;27;19919;-71
2021/11/11 02:16:43;;;;;;;;;;;14.10;67.30;;;;;;4260424;27;20359;-71
2021/11/11 02:18:47;;;;;;;;;;;14.20;67.40;;;;;;4246826;27;19919;-71
2021/11/11 02:20:51;;;;;;;;;;;14.10;67.30;;;;;;4252625;27;19919;-71
2021/11/11 02:22:54;;;;;;;;;;;14.10;67.30;;;;;;4253650;27;20325;-71
2021/11/11 02:24:57;;;;;;;;;;;14.10;67.30;;;;;;4229841;28;19920;-70
2021/11/11 02:27:00;;;;;;;;;;;14.10;67.30;;;;;;4253001;27;19920;-71
2021/11/11 02:29:04;;;;;;;;;;;14.10;67.30;;;;;;4268961;27;19919;-72
2021/11/11 02:31:06;;;;;;;;;;;14.10;67.30;;;;;;4261817;27;20288;-71
2021/11/11 02:33:10;;;;;;;;;;;14.10;67.30;;;;;;4257672;27;19937;-71
2021/11/11 02:35:13;;;;;;;;;;;14.10;67.30;;;;;;4264763;27;19922;-72
2021/11/11 02:37:17;;;;;;;;;;;14.10;67.30;;;;;;4251168;27;19935;-71
2021/11/11 02:39:20;;;;;;;;;;;14.10;67.30;;;;;;4246530;27;19919;-71
2021/11/11 02:41:23;;;;;;;;;;;14.10;67.30;;;;;;4253287;27;19926;-72
2021/11/11 02:43:28;;;;;;;;;;;14.10;67.20;;;;;;4257706;27;19922;-71
2021/11/11 02:45:32;;;;;;;;;;;14.10;67.20;;;;;;4266935;27;19930;-71
2021/11/11 02:47:35;;;;;;;;;;;14.00;67.20;;;;;;4262144;27;19918;-70
2021/11/11 02:49:38;;;;;;;;;;;14.10;67.30;;;;;;4246327;28;19920;-71
2021/11/11 02:51:41;;;;;;;;;;;14.10;67.20;;;;;;4252025;27;19934;-71
2021/11/11 02:53:46;;;;;;;;;;;14.00;67.10;;;;;;4254816;27;19919;-71
2021/11/11 02:55:49;;;;;;;;;;;14.10;67.20;;;;;;4246007;28;20367;-70
2021/11/11 02:57:52;;;;;;;;;;;14.00;67.20;;;;;;4240380;27;20300;-71
2021/11/11 02:59:56;;;;;;;;;;;14.00;67.20;;;;;;4250124;27;20405;-71
2021/11/11 03:01:59;;;;;;;;;;;14.00;67.10;;;;;;4252186;27;19919;-71
2021/11/11 03:04:02;;;;;;;;;;;14.00;67.10;;;;;;4255595;27;19923;-71
2021/11/11 03:06:05;;;;;;;;;;;14.00;67.10;;;;;;4247178;28;20340;-72
2021/11/11 03:08:08;;;;;;;;;;;14.00;67.10;;;;;;4257884;27;19919;-71
2021/11/11 03:10:15;;;;;;;;;;;14.00;67.10;;;;;;4248023;27;19919;-71
2021/11/11 03:12:18;;;;;;;;;;;14.00;67.00;;;;;;4249509;27;19919;-71
2021/11/11 03:14:20;;;;;;;;;;;14.00;67.10;;;;;;4258807;27;20391;-72
2021/11/11 03:16:23;;;;;;;;;;;14.00;67.00;;;;;;4249312;28;19919;-71
2021/11/11 03:18:26;;;;;;;;;;;14.00;67.00;;;;;;4258812;27;19948;-72
2021/11/11 03:20:29;;;;;;;;;;;14.00;67.00;;;;;;4248575;27;20280;-71
2021/11/11 03:22:32;;;;;;;;;;;13.90;67.00;;;;;;4247981;27;20589;-71
2021/11/11 03:24:36;;;;;;;;;;;13.90;67.00;;;;;;4260073;27;20264;-72
2021/11/11 03:26:40;;;;;;;;;;;13.90;67.00;;;;;;4249648;27;19926;-71
2021/11/11 03:28:42;;;;;;;;;;;13.90;67.00;;;;;;4259600;27;19926;-71
2021/11/11 03:30:45;;;;;;;;;;;13.90;66.90;;;;;;4252068;27;19964;-71
2021/11/11 03:32:49;;;;;;;;;;;13.90;66.90;;;;;;4253619;27;19945;-71
2021/11/11 03:34:52;;;;;;;;;;;13.90;66.90;;;;;;4256186;27;19926;-71
2021/11/11 03:36:55;;;;;;;;;;;13.90;66.90;;;;;;4264516;27;19919;-71
2021/11/11 03:38:58;;;;;;;;;;;13.90;66.90;;;;;;4263671;27;19923;-71
2021/11/11 03:41:01;;;;;;;;;;;13.90;66.90;;;;;;4255422;27;19923;-71
2021/11/11 03:43:06;;;;;;;;;;;13.90;66.90;;;;;;4253855;27;19926;-71
2021/11/11 03:45:09;;;;;;;;;;;13.90;66.90;;;;;;4268931;27;19936;-71
2021/11/11 03:47:13;;;;;;;;;;;13.90;66.90;;;;;;4265999;27;19926;-71
2021/11/11 03:49:16;;;;;;;;;;;13.90;66.90;;;;;;4256094;27;19923;-71
2021/11/11 03:51:21;;;;;;;;;;;13.80;66.80;;;;;;4262818;27;19923;-72
2021/11/11 03:53:24;;;;;;;;;;;13.90;66.90;;;;;;4264367;27;20328;-72
2021/11/11 03:55:27;;;;;;;;;;;13.90;66.80;;;;;;4256831;27;19987;-72
2021/11/11 03:57:29;;;;;;;;;;;13.80;66.80;;;;;;4267299;27;19919;-72
2021/11/11 03:59:36;;;;;;;;;;;13.80;66.80;;;;;;4258832;27;20005;-72
2021/11/11 04:01:39;;;;;;;;;;;13.80;66.70;;;;;;4264995;27;20370;-71
2021/11/11 04:03:42;;;;;;;;;;;13.80;66.70;;;;;;4264324;27;19935;-71
2021/11/11 04:05:45;;;;;;;;;;;13.80;66.70;;;;;;4254061;27;19919;-71
2021/11/11 04:07:48;;;;;;;;;;;13.80;66.70;;;;;;4265980;27;19919;-71
2021/11/11 04:09:51;;;;;;;;;;;13.80;66.70;;;;;;4259248;27;20387;-71
2021/11/11 04:11:54;;;;;;;;;;;13.90;66.70;;;;;;4262076;27;19926;-71
2021/11/11 04:13:57;;;;;;;;;;;13.80;66.60;;;;;;4264090;27;19919;-72
2021/11/11 04:16:01;;;;;;;;;;;13.80;66.70;;;;;;4253780;27;20423;-71
2021/11/11 04:18:03;;;;;;;;;;;13.80;66.60;;;;;;4265344;27;19926;-71
2021/11/11 04:20:09;;;;;;;;;;;13.80;66.60;;;;;;4263420;27;19918;-71
2021/11/11 04:22:11;;;;;;;;;;;13.80;66.60;;;;;;4253483;27;19949;-71
2021/11/11 04:24:14;;;;;;;;;;;13.80;66.60;;;;;;4251037;27;19920;-71
2021/11/11 04:26:21;;;;;;;;;;;13.80;66.60;;;;;;4260384;27;19919;-71
2021/11/11 04:28:30;;;;;;;;;;;13.80;66.60;;;;;;4249478;27;19919;-72
2021/11/11 04:30:36;;;;;;;;;;;13.80;66.50;;;;;;4253909;27;20321;-74
2021/11/11 04:32:41;;;;;;;;;;;13.70;66.40;;;;;;4263678;27;19918;-73
2021/11/11 04:34:46;;;;;;;;;;;13.70;66.40;;;;;;4263036;27;19972;-74
2021/11/11 04:41:39;;;;;;;;;;;13.70;66.40;;;;;;4254082;27;19919;-73
2021/11/11 05:00:03;;;;;;;;;;;13.70;66.30;;;;;;4247761;27;19923;-74
2021/11/11 05:02:53;;;;;;;;;;;13.70;66.20;;;;;;4252005;27;19923;-71
2021/11/11 05:04:34;;;;;;;;;;;13.60;66.20;;;;;;4257422;27;19923;-72
2021/11/11 05:06:37;;;;;;;;;;;13.70;66.30;;;;;;4259602;27;20283;-72
2021/11/11 05:08:39;;;;;;;;;;;13.70;66.20;;;;;;4260159;27;20469;-72
2021/11/11 05:10:43;;;;;;;;;;;13.60;66.10;;;;;;4257719;27;19920;-72
2021/11/11 05:12:46;;;;;;;;;;;13.60;66.10;;;;;;4259410;27;19919;-71
2021/11/11 05:14:48;;;;;;;;;;;13.60;66.10;;;;;;4247283;27;19923;-71
2021/11/11 05:16:51;;;;;;;;;;;13.60;66.10;;;;;;4253805;27;19971;-72
2021/11/11 05:18:54;;;;;;;;;;;13.60;66.10;;;;;;4253481;27;20358;-72
2021/11/11 05:20:58;;;;;;;;;;;13.60;66.00;;;;;;4248669;27;19920;-71
2021/11/11 05:23:01;;;;;;;;;;;13.60;66.00;;;;;;4260602;27;19990;-72
2021/11/11 05:25:04;;;;;;;;;;;13.60;66.00;;;;;;4249651;27;19923;-71
2021/11/11 05:27:08;;;;;;;;;;;13.60;66.00;;;;;;4254273;27;19923;-71
2021/11/11 05:29:10;;;;;;;;;;;13.60;66.00;;;;;;4254061;27;19915;-72
2021/11/11 05:31:13;;;;;;;;;;;13.60;65.90;;;;;;4248964;27;19915;-71
2021/11/11 05:33:16;;;;;;;;;;;13.60;65.90;;;;;;4264669;27;19919;-72
2021/11/11 05:35:19;;;;;;;;;;;13.60;65.90;;;;;;4264558;27;19919;-72
2021/11/11 05:37:23;;;;;;;;;;;13.50;65.80;;;;;;4256864;27;19920;-72
2021/11/11 05:39:25;;;;;;;;;;;13.50;65.90;;;;;;4247279;27;20333;-71
2021/11/11 05:41:28;;;;;;;;;;;13.60;65.90;;;;;;4247373;27;19923;-71
2021/11/11 05:43:31;;;;;;;;;;;13.60;65.80;;;;;;4253589;27;19926;-71
2021/11/11 05:45:34;;;;;;;;;;;13.60;65.90;;;;;;4250636;27;19960;-71
2021/11/11 05:47:37;;;;;;;;;;;13.50;65.80;;;;;;4250960;27;19919;-71
2021/11/11 05:49:40;;;;;;;;;;;13.50;65.70;;;;;;4265827;27;20454;-71
2021/11/11 05:51:43;;;;;;;;;;;13.50;65.70;;;;;;4265859;27;19930;-71
2021/11/11 05:53:47;;;;;;;;;;;13.50;65.70;;;;;;4251666;27;19919;-71
2021/11/11 05:55:51;;;;;;;;;;;13.50;65.70;;;;;;4246704;27;19931;-71
2021/11/11 05:57:54;;;;;;;;;;;13.50;65.70;;;;;;4250389;27;19972;-71
2021/11/11 05:59:56;;;;;;;;;;;13.50;65.60;;;;;;4258106;27;19958;-71
2021/11/11 06:02:00;;;;;;;;;;;13.50;65.70;;;;;;4246980;27;19919;-72
2021/11/11 06:04:03;;;;;;;;;;;13.50;65.60;;;;;;4248369;27;19919;-72
2021/11/11 06:06:06;;;;;;;;;;;13.50;65.60;;;;;;4265632;27;19983;-75
2021/11/11 06:08:09;;;;;;;;;;;13.50;65.60;;;;;;4262657;27;19919;-71
2021/11/11 06:10:13;;;;;;;;;;;13.40;65.50;;;;;;4250793;27;19965;-72
2021/11/11 06:12:16;;;;;;;;;;;13.50;65.60;;;;;;4246672;27;19919;-72
2021/11/11 06:14:19;;;;;;;;;;;13.50;65.60;;;;;;4258087;27;19919;-72
2021/11/11 06:16:22;;;;;;;;;;;13.50;65.50;;;;;;4248504;27;19919;-71
2021/11/11 06:18:25;;;;;;;;;;;13.40;65.50;;;;;;4249756;27;19949;-72
2021/11/11 06:20:31;;;;;;;;;;;13.40;65.50;;;;;;4256310;27;19919;-72
2021/11/11 06:22:34;;;;;;;;;;;13.40;65.50;;;;;;4246650;27;19972;-72
2021/11/11 06:24:37;;;;;;;;;;;13.40;66.10;;;;;;4250341;27;19923;-72
2021/11/11 06:26:41;;;;;;;;;;;13.40;65.40;;;;;;4262618;27;19923;-72
2021/11/11 06:28:44;;;;;;;;;;;13.40;65.40;;;;;;4261546;27;19978;-72
2021/11/11 06:30:47;;;;;;;;;;;13.40;65.50;;;;;;4254229;27;19964;-72
2021/11/11 06:32:49;;;;;;;;;;;13.40;65.40;;;;;;4266126;27;19929;-72
2021/11/11 06:35:00;;;;;;;;;;;13.40;65.40;;;;;;4251518;27;19999;-72
2021/11/11 06:37:03;;;;;;;;;;;13.40;65.30;;;;;;4260722;27;19923;-71
2021/11/11 06:39:06;;;;;;;;;;;13.40;65.40;;;;;;4251443;27;19919;-72
2021/11/11 06:41:09;;;;;;;;;;;13.40;65.40;;;;;;4257203;27;19964;-72
2021/11/11 06:43:13;;;;;;;;;;;13.40;65.40;;;;;;4247710;28;19923;-72
2021/11/11 06:45:16;;;;;;;;;;;13.40;65.30;;;;;;4250172;27;19920;-72
2021/11/11 06:47:24;;;;;;;;;;;13.40;65.30;;;;;;4247029;28;19923;-74
2021/11/11 06:49:27;;;;;;;;;;;13.40;65.30;;;;;;4250855;27;19960;-73
2021/11/11 06:51:30;;;;;;;;;;;13.40;65.30;;;;;;4240089;28;19923;-72
2021/11/11 06:53:32;;;;;;;;;;;13.40;65.30;;;;;;4227958;28;20330;-71
2021/11/11 06:55:36;;;;;;;;;;;13.40;65.30;;;;;;4256731;27;19919;-73
2021/11/11 06:57:38;;;;;;;;;;;13.40;65.40;;;;;;4251046;27;19920;-72
2021/11/11 06:59:42;;;;;;;;;;;13.40;65.20;;;;;;4256424;27;19919;-71
2021/11/11 07:01:45;;;;;;;;;;;13.40;65.30;;;;;;4263130;27;19930;-72
2021/11/11 07:03:48;;;;;;;;;;;13.30;65.20;;;;;;4250290;27;19980;-73
2021/11/11 07:05:51;;;;;;;;;;;13.40;65.30;;;;;;4261834;27;19969;-72
2021/11/11 07:07:54;;;;;;;;;;;13.30;65.10;;;;;;4253950;27;19920;-72
2021/11/11 07:09:58;;;;;;;;;;;13.30;65.10;;;;;;4251368;27;19927;-71
2021/11/11 07:12:00;;;;;;;;;;;13.30;65.20;;;;;;4261023;27;19920;-72
2021/11/11 07:14:03;;;;;;;;;;;13.30;65.20;;;;;;4249874;27;19919;-71
2021/11/11 07:16:07;;;;;;;;;;;13.30;65.20;;;;;;4254491;27;19919;-71
2021/11/11 07:18:13;;;;;;;;;;;13.30;65.20;;;;;;4263118;27;19976;-71
2021/11/11 07:20:16;;;;;;;;;;;13.30;65.20;;;;;;4265065;27;19950;-71
2021/11/11 07:22:19;;;;;;;;;;;13.30;65.20;;;;;;4259530;27;19955;-71
2021/11/11 07:24:22;;;;;;;;;;;13.30;65.20;;;;;;4266505;27;19923;-71
2021/11/11 07:26:25;;;;;;;;;;;13.30;65.10;;;;;;4257441;27;19927;-73
2021/11/11 07:28:28;;;;;;;;;;;13.30;65.10;;;;;;4263554;27;20352;-72
2021/11/11 07:30:31;;;;;;;;;;;13.30;65.20;;;;;;4265652;27;19922;-72
2021/11/11 07:32:35;;;;;;;;;;;13.30;65.10;;;;;;4263968;27;19923;-73
2021/11/11 07:34:38;;;;;;;;;;;13.30;65.10;;;;;;4232659;28;19928;-72
2021/11/11 07:36:41;;;;;;;;;;;13.30;65.10;;;;;;4256461;27;19919;-71
2021/11/11 07:38:44;;;;;;;;;;;13.30;65.10;;;;;;4248865;27;19919;-72
2021/11/11 07:40:47;;;;;;;;;;;13.30;65.00;;;;;;4252909;27;20008;-72
2021/11/11 07:42:50;;;;;;;;;;;13.30;65.10;;;;;;4255865;27;19919;-72
2021/11/11 07:44:53;;;;;;;;;;;13.30;65.10;;;;;;4268137;27;19921;-72
2021/11/11 07:46:55;;;;;;;;;;;13.30;65.70;;;;;;4263724;27;19970;-71
2021/11/11 07:49:00;;;;;;;;;;;13.30;65.10;;;;;;4254767;27;19920;-72
2021/11/11 07:51:04;;;;;;;;;;;13.30;65.10;;;;;;4250204;27;19919;-72
2021/11/11 07:53:10;;;;;;;;;;;13.20;65.10;;;;;;4260892;27;20341;-72
2021/11/11 07:55:13;;;;;;;;;;;13.30;65.20;;;;;;4248836;27;19922;-71
2021/11/11 07:57:19;;;;;;;;;;;13.30;65.10;;;;;;4255803;27;19919;-72
2021/11/11 07:59:22;;;;;;;;;;;13.30;65.10;;;;;;4256368;27;19927;-72
2021/11/11 08:01:24;;;;;;;;;;;13.20;65.10;;;;;;4251494;27;19931;-72
2021/11/11 08:03:27;;;;;;;;;;;13.30;65.10;;;;;;4260641;27;19919;-72
2021/11/11 08:05:32;;;;;;;;;;;13.20;65.00;;;;;;4248374;27;19927;-72
2021/11/11 08:07:35;;;;;;;;;;;13.20;65.00;;;;;;4255793;27;19919;-72
2021/11/11 08:09:37;;;;;;;;;;;13.20;65.00;;;;;;4255980;27;20010;-72
2021/11/11 08:11:41;;;;;;;;;;;13.30;65.10;;;;;;4254763;27;19923;-72
2021/11/11 08:13:43;;;;;;;;;;;13.30;65.10;;;;;;4265091;27;19971;-72
2021/11/11 08:15:46;;;;;;;;;;;13.30;65.10;;;;;;4249626;27;19979;-71
2021/11/11 08:17:49;;;;;;;;;;;13.20;65.00;;;;;;4256175;27;19991;-72
2021/11/11 08:19:56;;;;;;;;;;;13.30;65.10;;;;;;4254458;27;19919;-71
2021/11/11 08:22:00;;;;;;;;;;;13.30;65.10;;;;;;4250985;27;20338;-71
2021/11/11 08:24:03;;;;;;;;;;;13.30;65.10;;;;;;4260955;27;20045;-71
2021/11/11 08:26:06;;;;;;;;;;;13.20;65.10;;;;;;4248130;27;19923;-72
2021/11/11 08:28:09;;;;;;;;;;;13.30;65.10;;;;;;4256131;27;19919;-72
2021/11/11 08:30:13;;;;;;;;;;;13.20;65.00;;;;;;4256493;27;19919;-72
2021/11/11 08:32:16;;;;;;;;;;;13.20;65.40;;;;;;4248724;27;19926;-72
2021/11/11 08:34:18;;;;;;;;;;;13.30;66.00;;;;;;4259411;27;20263;-72
2021/11/11 08:36:23;;;;;;;;;;;13.30;66.00;;;;;;4247950;27;19920;-71
2021/11/11 08:38:27;;;;;;;;;;;13.30;66.20;;;;;;4254986;27;19919;-72
2021/11/11 08:40:30;;;;;;;;;;;13.30;66.10;;;;;;4255998;27;20344;-72
2021/11/11 08:42:33;;;;;;;;;;;13.30;66.10;;;;;;4248308;27;19964;-72
2021/11/11 08:44:36;;;;;;;;;;;13.30;66.00;;;;;;4261346;27;20322;-72
2021/11/11 08:46:44;;;;;;;;;;;13.30;66.00;;;;;;4266064;27;19984;-72
2021/11/11 08:48:47;;;;;;;;;;;13.30;65.80;;;;;;4264795;27;19915;-72
2021/11/11 08:50:50;;;;;;;;;;;13.30;65.70;;;;;;4259093;27;19926;-71
2021/11/11 08:52:55;;;;;;;;;;;13.30;65.80;;;;;;4266181;27;20373;-72
2021/11/11 08:54:59;;;;;;;;;;;13.30;65.70;;;;;;4255238;27;20436;-73
2021/11/11 08:57:03;;;;;;;;;;;13.30;65.70;;;;;;4268169;27;19935;-72
2021/11/11 08:59:06;;;;;;;;;;;13.30;65.70;;;;;;4260274;27;19919;-72
2021/11/11 09:01:08;;;;;;;;;;;13.30;65.60;;;;;;4258622;27;20344;-72
2021/11/11 09:03:12;;;;;;;;;;;13.30;66.20;;;;;;4246441;27;19930;-72
2021/11/11 09:05:16;;;;;;;;;;;13.30;65.70;;;;;;4252828;27;19927;-72
2021/11/11 09:07:19;;;;;;;;;;;13.30;65.80;;;;;;4265984;27;20287;-71
2021/11/11 09:09:22;;;;;;;;;;;13.30;65.80;;;;;;4259747;27;19919;-72
2021/11/11 09:11:26;;;;;;;;;;;13.30;65.80;;;;;;4258685;27;20214;-72
2021/11/11 09:13:30;;;;;;;;;;;13.30;66.10;;;;;;4271183;27;20426;-72
2021/11/11 09:15:33;;;;;;;;;;;13.30;66.10;;;;;;4256264;27;19919;-72
2021/11/11 09:17:38;;;;;;;;;;;13.40;66.00;;;;;;4268766;27;19919;-72
2021/11/11 09:19:40;;;;;;;;;;;13.40;66.00;;;;;;4263157;27;19936;-72
2021/11/11 09:21:44;;;;;;;;;;;13.30;65.90;;;;;;4242319;27;19919;-73
2021/11/11 09:23:48;;;;;;;;;;;13.30;65.80;;;;;;4267365;27;19930;-72
2021/11/11 09:25:51;;;;;;;;;;;13.40;65.80;;;;;;4262981;27;19919;-72
2021/11/11 09:27:55;;;;;;;;;;;13.40;65.80;;;;;;4249355;27;19968;-72
2021/11/11 09:29:58;;;;;;;;;;;13.40;65.80;;;;;;4256360;27;20030;-72
2021/11/11 09:32:01;;;;;;;;;;;13.30;66.30;;;;;;4256854;27;19922;-72
2021/11/11 09:34:04;;;;;;;;;;;13.30;65.70;;;;;;4264804;27;19922;-72
2021/11/11 09:36:07;;;;;;;;;;;13.40;65.70;;;;;;4251737;27;19923;-72
2021/11/11 09:38:10;;;;;;;;;;;13.30;65.70;;;;;;4253223;27;19923;-72
2021/11/11 09:40:13;;;;;;;;;;;13.30;65.60;;;;;;4255236;27;19930;-72
2021/11/11 09:42:19;;;;;;;;;;;13.30;65.60;;;;;;4259249;27;19922;-72
2021/11/11 09:44:25;;;;;;;;;;;13.40;65.70;;;;;;4264307;27;19976;-72
2021/11/11 09:46:29;;;;;;;;;;;13.40;65.50;;;;;;4259756;27;19925;-72
2021/11/11 09:48:33;;;;;;;;;;;13.40;65.60;;;;;;4248198;27;19923;-72
2021/11/11 09:50:36;;;;;;;;;;;13.40;65.70;;;;;;4251485;27;19954;-72
2021/11/11 09:52:40;;;;;;;;;;;13.40;65.50;;;;;;4258918;27;19918;-72
2021/11/11 09:59:28;;;;;;;;;;;13.30;65.50;;;;;;4248541;27;19923;-72
2021/11/11 10:01:31;;;;;;;;;;;13.40;65.60;;;;;;4256440;27;20293;-72
2021/11/11 10:03:40;;;;;;;;;;;13.40;65.60;;;;;;4252762;27;19919;-72
2021/11/11 10:05:43;;;;;;;;;;;13.40;65.50;;;;;;4251911;27;20394;-71
2021/11/11 10:07:46;;;;;;;;;;;13.40;65.50;;;;;;4254154;27;20394;-72
2021/11/11 10:09:49;;;;;;;;;;;13.40;65.40;;;;;;4264948;27;19919;-74
2021/11/11 10:11:54;;;;;;;;;;;13.40;65.40;;;;;;4257817;27;19919;-72
2021/11/11 10:13:58;;;;;;;;;;;13.40;65.50;;;;;;4253889;27;19926;-72
2021/11/11 10:16:04;;;;;;;;;;;13.40;65.50;;;;;;4252668;27;19915;-73
2021/11/11 10:18:07;;;;;;;;;;;13.40;65.50;;;;;;4249327;27;20434;-74
2021/11/11 10:20:10;;;;;;;;;;;13.40;65.40;;;;;;4252306;27;19919;-72
2021/11/11 10:22:19;;;;;;;;;;;13.40;65.40;;;;;;4244121;27;19964;-72
2021/11/11 10:24:30;;;;;;;;;;;13.40;65.40;;;;;;4252974;27;19919;-71
2021/11/11 10:26:38;;;;;;;;;;;13.50;65.50;;;;;;4250439;27;19919;-71
2021/11/11 10:28:41;;;;;;;;;;;13.40;65.40;;;;;;4255185;27;19921;-72
2021/11/11 10:30:44;;;;;;;;;;;13.40;65.40;;;;;;4265654;27;20324;-72
2021/11/11 10:32:49;;;;;;;;;;;13.40;65.40;;;;;;4258968;27;19931;-71
2021/11/11 10:34:53;;;;;;;;;;;13.40;65.40;;;;;;4264097;27;19926;-72
2021/11/11 10:36:56;;;;;;;;;;;13.40;65.50;;;;;;4257644;27;19920;-72
2021/11/11 10:39:07;;;;;;;;;;;13.40;65.40;;;;;;4246637;27;19923;-71
2021/11/11 10:41:11;;;;;;;;;;;13.40;65.50;;;;;;4246664;27;20098;-72
2021/11/11 10:43:15;;;;;;;;;;;13.40;65.50;;;;;;4261193;27;19915;-72
2021/11/11 10:45:20;;;;;;;;;;;13.40;65.50;;;;;;4243837;27;20385;-71
2021/11/11 10:47:25;;;;;;;;;;;13.40;65.60;;;;;;4260256;27;19923;-72
2021/11/11 10:49:32;;;;;;;;;;;13.40;65.90;;;;;;4255995;27;19926;-72
2021/11/11 10:51:34;;;;;;;;;;;13.40;66.00;;;;;;4246635;28;19996;-72
2021/11/11 10:53:38;;;;;;;;;;;13.50;66.10;;;;;;4243315;28;19915;-72
2021/11/11 10:55:42;;;;;;;;;;;13.50;66.00;;;;;;4250766;27;19915;-71
2021/11/11 10:57:46;;;;;;;;;;;13.50;66.00;;;;;;4252520;27;20402;-72
2021/11/11 11:00:02;;;;;;;;;;;13.50;66.00;;;;;;4254907;27;20363;-72
2021/11/11 11:02:10;;;;;;;;;;;13.50;66.10;;;;;;4265846;27;20032;-74
2021/11/11 11:04:23;;;;;;;;;;;13.50;65.90;;;;;;4243431;28;19923;-72
2021/11/11 11:06:28;;;;;;;;;;;13.50;66.00;;;;;;4249937;28;19919;-72
2021/11/11 11:08:31;;;;;;;;;;;13.50;65.90;;;;;;4256807;27;20080;-71
2021/11/11 11:10:35;;;;;;;;;;;13.50;65.90;;;;;;4254512;27;19931;-72
2021/11/11 11:12:38;;;;;;;;;;;13.50;65.90;;;;;;4248812;27;20333;-72
2021/11/11 11:14:40;;;;;;;;;;;13.50;65.90;;;;;;4258586;27;19919;-72
2021/11/11 11:16:44;;;;;;;;;;;13.50;65.90;;;;;;4246147;28;19923;-71
2021/11/11 11:18:48;;;;;;;;;;;13.50;65.90;;;;;;4255558;27;19933;-72
2021/11/11 11:20:56;;;;;;;;;;;13.50;66.00;;;;;;4271558;27;19921;-72
2021/11/11 11:23:20;;;;;;;;;;;13.50;66.00;;;;;;4264421;27;19919;-72
2021/11/11 11:25:26;;;;;;;;;;;13.50;66.00;;;;;;4251313;27;19923;-72
2021/11/11 11:27:33;;;;;;;;;;;13.50;66.00;;;;;;4263466;27;19926;-72
2021/11/11 11:31:49;;;;;;;;;;;13.50;66.10;;;;;;4261394;27;19973;-71
2021/11/11 11:33:53;;;;;;;;;;;13.50;66.20;;;;;;4263422;27;19923;-71
2021/11/11 11:35:55;;;;;;;;;;;13.50;66.20;;;;;;4254538;27;19929;-72
2021/11/11 11:37:58;;;;;;;;;;;13.50;66.20;;;;;;4252414;27;19919;-72
2021/11/11 11:40:03;;;;;;;;;;;13.50;66.20;;;;;;4250893;27;20367;-72
2021/11/11 11:42:08;;;;;;;;;;;13.50;66.20;;;;;;4261645;27;19923;-71
2021/11/11 11:44:14;;;;;;;;;;;13.50;66.30;;;;;;4262492;27;20424;-72
2021/11/11 11:46:19;;;;;;;;;;;13.50;66.30;;;;;;4260588;27;19919;-72
2021/11/11 11:48:23;;;;;;;;;;;13.50;66.30;;;;;;4251012;27;19920;-71
2021/11/11 11:50:29;;;;;;;;;;;13.50;66.30;;;;;;4261110;27;19973;-71
2021/11/11 11:52:34;;;;;;;;;;;13.50;66.30;;;;;;4250690;27;19923;-71
2021/11/11 11:54:48;;;;;;;;;;;13.50;66.30;;;;;;4252156;27;19964;-71
2021/11/11 11:56:57;;;;;;;;;;;13.50;66.30;;;;;;4260744;27;19923;-72
2021/11/11 11:59:04;;;;;;;;;;;13.50;66.20;;;;;;4252593;27;19926;-71
2021/11/11 12:01:57;;;;;;;;;;;13.60;66.20;;;;;;4259453;27;19923;-71
2021/11/11 12:10:46;;;;;;;;;;;13.60;66.30;;;;;;4256672;27;20250;-71
2021/11/11 12:40:14;;;;;;;;;;;13.60;66.70;;;;;;4251780;27;19915;-71
2021/11/11 12:42:18;;;;;;;;;;;13.60;66.70;;;;;;4254924;27;19919;-71
2021/11/11 12:44:23;;;;;;;;;;;13.60;66.70;;;;;;4246827;27;20403;-71
2021/11/11 12:46:41;;;;;;;;;;;13.60;66.70;;;;;;4260795;27;19923;-71
2021/11/11 12:48:44;;;;;;;;;;;13.60;66.80;;;;;;4255830;27;19926;-72
2021/11/11 12:50:48;;;;;;;;;;;13.60;66.90;;;;;;4251187;27;19952;-71
2021/11/11 12:53:20;;;;;;;;;;;13.60;66.90;;;;;;4263833;27;19923;-71
2021/11/11 12:55:27;;;;;;;;;;;13.60;67.10;;;;;;4249282;27;19922;-71
2021/11/11 12:57:30;;;;;;;;;;;13.60;67.00;;;;;;4252291;27;19926;-71
2021/11/11 12:59:34;;;;;;;;;;;13.60;66.90;;;;;;4262566;27;19923;-72
2021/11/11 13:01:47;;;;;;;;;;;13.60;67.00;;;;;;4264149;27;20355;-72
2021/11/11 13:03:53;;;;;;;;;;;13.60;67.00;;;;;;4237104;27;19945;-72